sensor_id;sensor_type;location;lat;lon;timestamp;temperature;humidity
73322;DHT22;61549;37.044;22.128;2022-12-18T00:00:47;20.60;64.10
73322;DHT22;61549;37.044;22.128;2022-12-18T00:03:14;20.60;64.30
73322;DHT22;61549;37.044;22.128;2022-12-18T00:05:50;20.60;64.40
73322;DHT22;61549;37.044;22.128;2022-12-18T00:08:17;20.60;64.60
73322;DHT22;61549;37.044;22.128;2022-12-18T00:10:44;20.50;64.80
73322;DHT22;61549;37.044;22.128;2022-12-18T00:13:11;20.50;65.20
73322;DHT22;61549;37.044;22.128;2022-12-18T00:15:38;20.50;65.30
73322;DHT22;61549;37.044;22.128;2022-12-18T00:18:05;20.50;65.30
73322;DHT22;61549;37.044;22.128;2022-12-18T00:20:35;20.50;65.20
73322;DHT22;61549;37.044;22.128;2022-12-18T00:23:01;20.50;65.10
73322;DHT22;61549;37.044;22.128;2022-12-18T00:25:27;20.50;64.90
73322;DHT22;61549;37.044;22.128;2022-12-18T00:27:52;20.50;64.80
73322;DHT22;61549;37.044;22.128;2022-12-18T00:30:18;20.50;64.70
73322;DHT22;61549;37.044;22.128;2022-12-18T00:32:44;20.60;64.60
73322;DHT22;61549;37.044;22.128;2022-12-18T00:35:12;20.50;65.30
73322;DHT22;61549;37.044;22.128;2022-12-18T00:37:38;20.50;64.90
73322;DHT22;61549;37.044;22.128;2022-12-18T00:40:04;20.50;64.80
73322;DHT22;61549;37.044;22.128;2022-12-18T00:42:30;20.50;64.50
73322;DHT22;61549;37.044;22.128;2022-12-18T00:45:14;20.50;64.60
73322;DHT22;61549;37.044;22.128;2022-12-18T00:47:40;20.50;64.80
73322;DHT22;61549;37.044;22.128;2022-12-18T00:50:07;20.50;64.80
73322;DHT22;61549;37.044;22.128;2022-12-18T00:52:33;20.50;64.70
73322;DHT22;61549;37.044;22.128;2022-12-18T00:54:59;20.50;64.80
73322;DHT22;61549;37.044;22.128;2022-12-18T00:57:25;20.50;64.60
73322;DHT22;61549;37.044;22.128;2022-12-18T00:59:51;20.50;64.50
73322;DHT22;61549;37.044;22.128;2022-12-18T01:02:16;20.60;64.50
73322;DHT22;61549;37.044;22.128;2022-12-18T01:04:42;20.60;64.40
73322;DHT22;61549;37.044;22.128;2022-12-18T01:07:08;20.60;64.20
73322;DHT22;61549;37.044;22.128;2022-12-18T01:09:34;20.60;64.10
73322;DHT22;61549;37.044;22.128;2022-12-18T01:12:00;20.70;63.90
73322;DHT22;61549;37.044;22.128;2022-12-18T01:14:26;20.70;63.90
73322;DHT22;61549;37.044;22.128;2022-12-18T01:16:52;20.70;63.90
73322;DHT22;61549;37.044;22.128;2022-12-18T01:19:18;20.70;64.60
73322;DHT22;61549;37.044;22.128;2022-12-18T01:21:44;20.60;64.10
73322;DHT22;61549;37.044;22.128;2022-12-18T01:24:11;20.50;64.10
73322;DHT22;61549;37.044;22.128;2022-12-18T01:26:37;20.60;64.20
73322;DHT22;61549;37.044;22.128;2022-12-18T01:29:03;20.50;64.30
73322;DHT22;61549;37.044;22.128;2022-12-18T01:31:33;20.40;64.30
73322;DHT22;61549;37.044;22.128;2022-12-18T01:34:03;20.40;64.20
73322;DHT22;61549;37.044;22.128;2022-12-18T01:36:32;20.40;64.20
73322;DHT22;61549;37.044;22.128;2022-12-18T01:39:05;20.40;64.50
73322;DHT22;61549;37.044;22.128;2022-12-18T01:41:34;20.40;64.60
73322;DHT22;61549;37.044;22.128;2022-12-18T01:50:15;20.30;64.60
73322;DHT22;61549;37.044;22.128;2022-12-18T01:52:43;20.20;64.70
73322;DHT22;61549;37.044;22.128;2022-12-18T01:55:11;20.20;64.80
73322;DHT22;61549;37.044;22.128;2022-12-18T01:57:39;20.20;64.60
73322;DHT22;61549;37.044;22.128;2022-12-18T02:00:13;20.20;64.40
73322;DHT22;61549;37.044;22.128;2022-12-18T02:02:44;20.30;63.90
73322;DHT22;61549;37.044;22.128;2022-12-18T02:05:12;20.30;63.70
73322;DHT22;61549;37.044;22.128;2022-12-18T02:10:33;20.30;63.80
73322;DHT22;61549;37.044;22.128;2022-12-18T02:13:23;20.30;63.80
73322;DHT22;61549;37.044;22.128;2022-12-18T02:16:16;20.30;63.70
73322;DHT22;61549;37.044;22.128;2022-12-18T02:18:48;20.30;63.60
73322;DHT22;61549;37.044;22.128;2022-12-18T02:26:55;20.30;64.00
73322;DHT22;61549;37.044;22.128;2022-12-18T02:29:37;20.20;64.20
73322;DHT22;61549;37.044;22.128;2022-12-18T02:32:10;20.20;64.40
73322;DHT22;61549;37.044;22.128;2022-12-18T02:34:39;20.20;64.70
73322;DHT22;61549;37.044;22.128;2022-12-18T02:37:10;20.10;64.90
73322;DHT22;61549;37.044;22.128;2022-12-18T02:39:38;20.10;65.10
73322;DHT22;61549;37.044;22.128;2022-12-18T02:42:06;20.20;65.20
73322;DHT22;61549;37.044;22.128;2022-12-18T02:44:42;20.30;65.10
73322;DHT22;61549;37.044;22.128;2022-12-18T02:47:16;20.30;64.80
73322;DHT22;61549;37.044;22.128;2022-12-18T02:55:13;20.30;65.70
73322;DHT22;61549;37.044;22.128;2022-12-18T02:58:40;20.30;65.40
73322;DHT22;61549;37.044;22.128;2022-12-18T03:01:09;20.30;65.50
73322;DHT22;61549;37.044;22.128;2022-12-18T03:03:49;20.40;65.50
73322;DHT22;61549;37.044;22.128;2022-12-18T03:06:32;20.40;65.70
73322;DHT22;61549;37.044;22.128;2022-12-18T03:09:02;20.40;66.30
73322;DHT22;61549;37.044;22.128;2022-12-18T03:11:33;20.40;66.00
73322;DHT22;61549;37.044;22.128;2022-12-18T03:14:20;20.40;66.20
73322;DHT22;61549;37.044;22.128;2022-12-18T03:16:50;20.40;66.20
73322;DHT22;61549;37.044;22.128;2022-12-18T03:19:21;20.40;66.30
73322;DHT22;61549;37.044;22.128;2022-12-18T03:21:52;20.40;66.30
73322;DHT22;61549;37.044;22.128;2022-12-18T03:24:20;20.50;66.30
73322;DHT22;61549;37.044;22.128;2022-12-18T03:26:50;20.50;66.30
73322;DHT22;61549;37.044;22.128;2022-12-18T03:29:25;20.50;66.10
73322;DHT22;61549;37.044;22.128;2022-12-18T03:32:08;20.50;66.00
73322;DHT22;61549;37.044;22.128;2022-12-18T03:34:38;20.50;66.20
73322;DHT22;61549;37.044;22.128;2022-12-18T03:37:07;20.50;66.10
73322;DHT22;61549;37.044;22.128;2022-12-18T03:39:34;20.50;65.90
73322;DHT22;61549;37.044;22.128;2022-12-18T03:44:57;20.60;65.70
73322;DHT22;61549;37.044;22.128;2022-12-18T03:47:35;20.60;65.30
73322;DHT22;61549;37.044;22.128;2022-12-18T03:50:24;20.60;65.10
73322;DHT22;61549;37.044;22.128;2022-12-18T03:55:49;20.60;64.90
73322;DHT22;61549;37.044;22.128;2022-12-18T03:58:18;20.60;64.90
73322;DHT22;61549;37.044;22.128;2022-12-18T04:00:46;20.60;64.80
73322;DHT22;61549;37.044;22.128;2022-12-18T04:03:14;20.60;64.80
73322;DHT22;61549;37.044;22.128;2022-12-18T04:05:41;20.60;64.70
73322;DHT22;61549;37.044;22.128;2022-12-18T04:08:07;20.60;65.20
73322;DHT22;61549;37.044;22.128;2022-12-18T04:10:33;20.60;65.10
73322;DHT22;61549;37.044;22.128;2022-12-18T04:13:01;20.50;64.80
73322;DHT22;61549;37.044;22.128;2022-12-18T04:15:26;20.50;64.90
73322;DHT22;61549;37.044;22.128;2022-12-18T04:17:52;20.60;64.80
73322;DHT22;61549;37.044;22.128;2022-12-18T04:20:19;20.60;64.80
73322;DHT22;61549;37.044;22.128;2022-12-18T04:22:46;20.60;64.80
73322;DHT22;61549;37.044;22.128;2022-12-18T04:25:12;20.60;64.60
73322;DHT22;61549;37.044;22.128;2022-12-18T04:27:39;20.60;64.50
73322;DHT22;61549;37.044;22.128;2022-12-18T04:30:06;20.60;64.60
73322;DHT22;61549;37.044;22.128;2022-12-18T04:32:34;20.60;64.40
73322;DHT22;61549;37.044;22.128;2022-12-18T04:35:00;20.60;64.00
73322;DHT22;61549;37.044;22.128;2022-12-18T04:37:25;20.60;64.00
73322;DHT22;61549;37.044;22.128;2022-12-18T04:39:51;20.60;63.70
73322;DHT22;61549;37.044;22.128;2022-12-18T04:42:17;20.60;63.20
73322;DHT22;61549;37.044;22.128;2022-12-18T04:44:44;20.60;63.00
73322;DHT22;61549;37.044;22.128;2022-12-18T04:47:10;20.50;62.80
73322;DHT22;61549;37.044;22.128;2022-12-18T04:49:36;20.40;62.80
73322;DHT22;61549;37.044;22.128;2022-12-18T04:52:01;20.50;62.50
73322;DHT22;61549;37.044;22.128;2022-12-18T04:54:27;20.40;62.10
73322;DHT22;61549;37.044;22.128;2022-12-18T04:56:53;20.40;61.90
73322;DHT22;61549;37.044;22.128;2022-12-18T04:59:19;20.40;61.90
73322;DHT22;61549;37.044;22.128;2022-12-18T05:01:45;20.50;62.50
73322;DHT22;61549;37.044;22.128;2022-12-18T05:04:11;20.50;63.10
73322;DHT22;61549;37.044;22.128;2022-12-18T05:06:37;20.50;63.10
73322;DHT22;61549;37.044;22.128;2022-12-18T05:09:03;20.50;62.80
73322;DHT22;61549;37.044;22.128;2022-12-18T05:11:29;20.50;62.60
73322;DHT22;61549;37.044;22.128;2022-12-18T05:13:54;20.50;62.60
73322;DHT22;61549;37.044;22.128;2022-12-18T05:16:20;20.40;62.70
73322;DHT22;61549;37.044;22.128;2022-12-18T05:18:46;20.40;63.40
73322;DHT22;61549;37.044;22.128;2022-12-18T05:21:12;20.30;62.70
73322;DHT22;61549;37.044;22.128;2022-12-18T05:23:38;20.40;62.70
73322;DHT22;61549;37.044;22.128;2022-12-18T05:26:05;20.40;62.60
73322;DHT22;61549;37.044;22.128;2022-12-18T05:28:33;20.40;62.10
73322;DHT22;61549;37.044;22.128;2022-12-18T05:31:00;20.40;61.70
73322;DHT22;61549;37.044;22.128;2022-12-18T05:33:30;20.40;61.70
73322;DHT22;61549;37.044;22.128;2022-12-18T05:35:58;20.50;61.90
73322;DHT22;61549;37.044;22.128;2022-12-18T05:38:28;20.50;62.00
73322;DHT22;61549;37.044;22.128;2022-12-18T05:40:54;20.40;62.10
73322;DHT22;61549;37.044;22.128;2022-12-18T05:43:31;20.50;62.40
73322;DHT22;61549;37.044;22.128;2022-12-18T05:46:11;20.50;62.20
73322;DHT22;61549;37.044;22.128;2022-12-18T05:48:37;20.50;62.20
73322;DHT22;61549;37.044;22.128;2022-12-18T05:51:09;20.60;62.20
73322;DHT22;61549;37.044;22.128;2022-12-18T05:53:37;20.60;61.90
73322;DHT22;61549;37.044;22.128;2022-12-18T05:56:05;20.60;62.10
73322;DHT22;61549;37.044;22.128;2022-12-18T05:58:32;20.70;62.40
73322;DHT22;61549;37.044;22.128;2022-12-18T06:01:06;20.70;62.70
73322;DHT22;61549;37.044;22.128;2022-12-18T06:03:33;20.70;62.20
73322;DHT22;61549;37.044;22.128;2022-12-18T06:05:59;20.60;61.60
73322;DHT22;61549;37.044;22.128;2022-12-18T06:08:25;20.60;61.50
73322;DHT22;61549;37.044;22.128;2022-12-18T06:10:54;20.60;61.40
73322;DHT22;61549;37.044;22.128;2022-12-18T06:13:20;20.60;61.50
73322;DHT22;61549;37.044;22.128;2022-12-18T06:15:47;20.60;61.70
73322;DHT22;61549;37.044;22.128;2022-12-18T06:18:12;20.60;61.80
73322;DHT22;61549;37.044;22.128;2022-12-18T06:20:38;20.60;62.00
73322;DHT22;61549;37.044;22.128;2022-12-18T06:23:07;20.60;61.60
73322;DHT22;61549;37.044;22.128;2022-12-18T06:25:37;20.60;61.70
73322;DHT22;61549;37.044;22.128;2022-12-18T06:28:03;20.60;61.50
73322;DHT22;61549;37.044;22.128;2022-12-18T06:30:29;20.70;61.50
73322;DHT22;61549;37.044;22.128;2022-12-18T06:32:55;20.60;61.40
73322;DHT22;61549;37.044;22.128;2022-12-18T06:35:22;20.60;61.50
73322;DHT22;61549;37.044;22.128;2022-12-18T06:37:48;20.60;61.50
73322;DHT22;61549;37.044;22.128;2022-12-18T06:40:14;20.70;61.50
73322;DHT22;61549;37.044;22.128;2022-12-18T06:42:40;20.70;61.40
73322;DHT22;61549;37.044;22.128;2022-12-18T06:45:06;20.70;61.60
73322;DHT22;61549;37.044;22.128;2022-12-18T06:47:32;20.80;61.40
73322;DHT22;61549;37.044;22.128;2022-12-18T06:49:58;20.80;61.00
73322;DHT22;61549;37.044;22.128;2022-12-18T06:52:24;20.80;60.90
73322;DHT22;61549;37.044;22.128;2022-12-18T06:54:50;20.90;60.80
73322;DHT22;61549;37.044;22.128;2022-12-18T06:57:16;20.90;60.70
73322;DHT22;61549;37.044;22.128;2022-12-18T06:59:41;21.00;60.90
73322;DHT22;61549;37.044;22.128;2022-12-18T07:02:11;21.00;60.90
73322;DHT22;61549;37.044;22.128;2022-12-18T07:04:37;21.00;61.10
73322;DHT22;61549;37.044;22.128;2022-12-18T07:07:03;21.00;61.50
73322;DHT22;61549;37.044;22.128;2022-12-18T07:09:29;21.00;61.70
73322;DHT22;61549;37.044;22.128;2022-12-18T07:11:55;21.10;61.70
73322;DHT22;61549;37.044;22.128;2022-12-18T07:14:21;21.20;61.60
73322;DHT22;61549;37.044;22.128;2022-12-18T07:16:47;21.20;61.70
73322;DHT22;61549;37.044;22.128;2022-12-18T07:19:13;21.30;61.60
73322;DHT22;61549;37.044;22.128;2022-12-18T07:21:39;21.30;61.50
73322;DHT22;61549;37.044;22.128;2022-12-18T07:24:05;21.40;61.60
73322;DHT22;61549;37.044;22.128;2022-12-18T07:26:31;21.50;61.30
73322;DHT22;61549;37.044;22.128;2022-12-18T07:28:57;21.50;61.00
73322;DHT22;61549;37.044;22.128;2022-12-18T07:31:24;21.60;60.70
73322;DHT22;61549;37.044;22.128;2022-12-18T07:33:51;21.60;60.80
73322;DHT22;61549;37.044;22.128;2022-12-18T07:36:17;21.70;61.00
73322;DHT22;61549;37.044;22.128;2022-12-18T07:38:47;21.70;61.00
73322;DHT22;61549;37.044;22.128;2022-12-18T07:41:14;21.80;60.90
73322;DHT22;61549;37.044;22.128;2022-12-18T07:43:40;21.90;60.60
73322;DHT22;61549;37.044;22.128;2022-12-18T07:46:16;22.00;60.40
73322;DHT22;61549;37.044;22.128;2022-12-18T07:48:42;22.30;60.00
73322;DHT22;61549;37.044;22.128;2022-12-18T07:51:12;22.50;59.40
73322;DHT22;61549;37.044;22.128;2022-12-18T07:53:38;22.70;58.70
73322;DHT22;61549;37.044;22.128;2022-12-18T07:56:07;22.90;58.50
73322;DHT22;61549;37.044;22.128;2022-12-18T07:58:33;23.00;58.60
73322;DHT22;61549;37.044;22.128;2022-12-18T08:01:06;23.10;59.10
73322;DHT22;61549;37.044;22.128;2022-12-18T08:03:33;23.10;58.50
73322;DHT22;61549;37.044;22.128;2022-12-18T08:06:03;23.10;57.50
73322;DHT22;61549;37.044;22.128;2022-12-18T08:08:30;23.00;58.90
73322;DHT22;61549;37.044;22.128;2022-12-18T08:10:57;23.00;59.70
73322;DHT22;61549;37.044;22.128;2022-12-18T08:13:23;23.10;60.50
73322;DHT22;61549;37.044;22.128;2022-12-18T08:16:01;23.40;59.60
73322;DHT22;61549;37.044;22.128;2022-12-18T08:18:27;23.60;57.60
73322;DHT22;61549;37.044;22.128;2022-12-18T08:20:54;23.70;57.10
73322;DHT22;61549;37.044;22.128;2022-12-18T08:23:20;24.00;56.10
73322;DHT22;61549;37.044;22.128;2022-12-18T08:25:46;24.10;55.60
73322;DHT22;61549;37.044;22.128;2022-12-18T08:28:12;24.30;55.60
73322;DHT22;61549;37.044;22.128;2022-12-18T08:30:38;24.50;54.60
73322;DHT22;61549;37.044;22.128;2022-12-18T08:33:04;24.60;54.40
73322;DHT22;61549;37.044;22.128;2022-12-18T08:35:35;24.80;53.90
73322;DHT22;61549;37.044;22.128;2022-12-18T08:38:01;25.00;54.50
73322;DHT22;61549;37.044;22.128;2022-12-18T08:40:27;25.20;54.90
73322;DHT22;61549;37.044;22.128;2022-12-18T08:42:53;25.30;54.50
73322;DHT22;61549;37.044;22.128;2022-12-18T08:45:37;25.50;54.10
73322;DHT22;61549;37.044;22.128;2022-12-18T08:48:03;25.70;53.70
73322;DHT22;61549;37.044;22.128;2022-12-18T08:50:29;25.80;52.80
73322;DHT22;61549;37.044;22.128;2022-12-18T08:52:55;25.90;52.20
73322;DHT22;61549;37.044;22.128;2022-12-18T08:55:21;26.10;52.40
73322;DHT22;61549;37.044;22.128;2022-12-18T08:57:50;26.10;52.40
73322;DHT22;61549;37.044;22.128;2022-12-18T09:00:16;26.20;52.50
73322;DHT22;61549;37.044;22.128;2022-12-18T09:02:42;26.20;52.40
73322;DHT22;61549;37.044;22.128;2022-12-18T09:05:08;26.30;52.80
73322;DHT22;61549;37.044;22.128;2022-12-18T09:07:34;26.40;53.20
73322;DHT22;61549;37.044;22.128;2022-12-18T09:10:04;26.50;53.00
73322;DHT22;61549;37.044;22.128;2022-12-18T09:12:30;26.50;53.00
73322;DHT22;61549;37.044;22.128;2022-12-18T09:14:57;26.60;52.20
73322;DHT22;61549;37.044;22.128;2022-12-18T09:17:23;26.70;51.30
73322;DHT22;61549;37.044;22.128;2022-12-18T09:19:48;26.80;51.60
73322;DHT22;61549;37.044;22.128;2022-12-18T09:22:14;26.90;52.00
73322;DHT22;61549;37.044;22.128;2022-12-18T09:24:41;26.90;52.10
73322;DHT22;61549;37.044;22.128;2022-12-18T09:27:07;27.00;51.60
73322;DHT22;61549;37.044;22.128;2022-12-18T09:29:33;27.00;50.80
73322;DHT22;61549;37.044;22.128;2022-12-18T09:31:58;27.00;51.10
73322;DHT22;61549;37.044;22.128;2022-12-18T09:34:24;27.00;51.10
73322;DHT22;61549;37.044;22.128;2022-12-18T09:36:50;27.10;51.80
73322;DHT22;61549;37.044;22.128;2022-12-18T09:39:16;27.00;52.00
73322;DHT22;61549;37.044;22.128;2022-12-18T09:41:52;26.80;51.70
73322;DHT22;61549;37.044;22.128;2022-12-18T09:44:34;26.70;52.20
73322;DHT22;61549;37.044;22.128;2022-12-18T09:47:27;26.90;51.70
73322;DHT22;61549;37.044;22.128;2022-12-18T09:49:58;26.90;52.20
73322;DHT22;61549;37.044;22.128;2022-12-18T09:52:39;26.90;51.70
73322;DHT22;61549;37.044;22.128;2022-12-18T09:55:24;26.90;51.90
73322;DHT22;61549;37.044;22.128;2022-12-18T09:58:02;26.80;52.70
73322;DHT22;61549;37.044;22.128;2022-12-18T10:00:30;26.80;52.20
73322;DHT22;61549;37.044;22.128;2022-12-18T10:03:16;26.80;52.10
73322;DHT22;61549;37.044;22.128;2022-12-18T10:08:44;26.60;52.60
73322;DHT22;61549;37.044;22.128;2022-12-18T10:22:15;26.70;51.90
73322;DHT22;61549;37.044;22.128;2022-12-18T10:25:04;26.70;52.50
73322;DHT22;61549;37.044;22.128;2022-12-18T10:27:31;26.80;52.00
73322;DHT22;61549;37.044;22.128;2022-12-18T10:29:57;26.70;52.90
73322;DHT22;61549;37.044;22.128;2022-12-18T10:32:28;26.80;52.30
73322;DHT22;61549;37.044;22.128;2022-12-18T10:34:57;26.80;52.30
73322;DHT22;61549;37.044;22.128;2022-12-18T10:37:27;26.90;53.00
73322;DHT22;61549;37.044;22.128;2022-12-18T10:40:10;26.90;51.70
73322;DHT22;61549;37.044;22.128;2022-12-18T10:42:37;26.90;52.70
73322;DHT22;61549;37.044;22.128;2022-12-18T10:45:23;26.60;53.40
73322;DHT22;61549;37.044;22.128;2022-12-18T10:47:49;26.70;52.50
73322;DHT22;61549;37.044;22.128;2022-12-18T10:50:29;26.70;53.20
73322;DHT22;61549;37.044;22.128;2022-12-18T10:53:00;26.70;52.80
73322;DHT22;61549;37.044;22.128;2022-12-18T10:55:48;26.90;53.30
73322;DHT22;61549;37.044;22.128;2022-12-18T10:58:35;26.90;52.70
73322;DHT22;61549;37.044;22.128;2022-12-18T11:03:44;26.90;53.30
73322;DHT22;61549;37.044;22.128;2022-12-18T11:06:15;26.90;53.10
73322;DHT22;61549;37.044;22.128;2022-12-18T11:08:43;26.60;53.40
73322;DHT22;61549;37.044;22.128;2022-12-18T11:11:36;26.70;53.30
73322;DHT22;61549;37.044;22.128;2022-12-18T11:14:06;26.70;54.00
73322;DHT22;61549;37.044;22.128;2022-12-18T11:16:43;26.60;54.00
73322;DHT22;61549;37.044;22.128;2022-12-18T11:19:35;26.50;54.00
73322;DHT22;61549;37.044;22.128;2022-12-18T11:22:18;26.60;53.50
73322;DHT22;61549;37.044;22.128;2022-12-18T11:25:16;26.70;53.10
73322;DHT22;61549;37.044;22.128;2022-12-18T11:27:39;26.70;54.40
73322;DHT22;61549;37.044;22.128;2022-12-18T11:30:35;26.50;54.10
73322;DHT22;61549;37.044;22.128;2022-12-18T11:33:10;26.50;54.30
73322;DHT22;61549;37.044;22.128;2022-12-18T11:35:51;26.60;54.60
73322;DHT22;61549;37.044;22.128;2022-12-18T11:38:26;26.80;53.90
73322;DHT22;61549;37.044;22.128;2022-12-18T11:43:55;27.10;53.30
73322;DHT22;61549;37.044;22.128;2022-12-18T11:46:37;27.20;52.90
73322;DHT22;61549;37.044;22.128;2022-12-18T11:49:28;27.20;52.80
73322;DHT22;61549;37.044;22.128;2022-12-18T11:54:32;27.10;52.90
73322;DHT22;61549;37.044;22.128;2022-12-18T11:57:33;26.90;53.30
73322;DHT22;61549;37.044;22.128;2022-12-18T12:00:12;26.90;53.90
73322;DHT22;61549;37.044;22.128;2022-12-18T12:02:59;26.80;53.70
73322;DHT22;61549;37.044;22.128;2022-12-18T12:08:13;26.80;53.60
73322;DHT22;61549;37.044;22.128;2022-12-18T12:13:36;26.90;53.00
73322;DHT22;61549;37.044;22.128;2022-12-18T12:16:22;27.00;53.50
73322;DHT22;61549;37.044;22.128;2022-12-18T12:26:34;27.40;52.40
73322;DHT22;61549;37.044;22.128;2022-12-18T12:29:28;27.50;52.10
73322;DHT22;61549;37.044;22.128;2022-12-18T12:32:12;27.50;51.70
73322;DHT22;61549;37.044;22.128;2022-12-18T12:40:05;27.50;52.10
73322;DHT22;61549;37.044;22.128;2022-12-18T12:45:29;27.40;53.00
73322;DHT22;61549;37.044;22.128;2022-12-18T12:47:59;27.30;53.00
73322;DHT22;61549;37.044;22.128;2022-12-18T12:50:27;27.20;53.60
73322;DHT22;61549;37.044;22.128;2022-12-18T12:52:55;27.20;53.80
73322;DHT22;61549;37.044;22.128;2022-12-18T12:55:25;27.20;53.20
73322;DHT22;61549;37.044;22.128;2022-12-18T13:04:06;26.80;53.30
73322;DHT22;61549;37.044;22.128;2022-12-18T13:09:19;26.40;53.70
73322;DHT22;61549;37.044;22.128;2022-12-18T13:11:46;26.40;54.20
73322;DHT22;61549;37.044;22.128;2022-12-18T13:14:41;26.50;53.80
73322;DHT22;61549;37.044;22.128;2022-12-18T13:20:10;26.40;54.00
73322;DHT22;61549;37.044;22.128;2022-12-18T13:25:37;26.40;54.60
73322;DHT22;61549;37.044;22.128;2022-12-18T13:28:12;26.40;54.80
73322;DHT22;61549;37.044;22.128;2022-12-18T13:30:54;26.30;55.60
73322;DHT22;61549;37.044;22.128;2022-12-18T13:36:15;26.10;55.70
73322;DHT22;61549;37.044;22.128;2022-12-18T13:38:43;26.20;55.20
73322;DHT22;61549;37.044;22.128;2022-12-18T13:41:29;26.30;55.10
73322;DHT22;61549;37.044;22.128;2022-12-18T13:43:57;26.40;54.60
73322;DHT22;61549;37.044;22.128;2022-12-18T13:46:50;26.30;54.80
73322;DHT22;61549;37.044;22.128;2022-12-18T13:49:24;26.20;55.20
73322;DHT22;61549;37.044;22.128;2022-12-18T13:51:55;26.20;55.70
73322;DHT22;61549;37.044;22.128;2022-12-18T13:56:56;26.10;55.70
73322;DHT22;61549;37.044;22.128;2022-12-18T13:59:36;26.00;56.00
73322;DHT22;61549;37.044;22.128;2022-12-18T14:02:22;26.00;56.20
73322;DHT22;61549;37.044;22.128;2022-12-18T14:04:49;26.00;56.20
73322;DHT22;61549;37.044;22.128;2022-12-18T14:07:26;25.90;56.10
73322;DHT22;61549;37.044;22.128;2022-12-18T14:09:55;26.00;56.30
73322;DHT22;61549;37.044;22.128;2022-12-18T14:12:27;25.80;56.40
73322;DHT22;61549;37.044;22.128;2022-12-18T14:15:29;25.80;56.60
73322;DHT22;61549;37.044;22.128;2022-12-18T14:20:34;25.70;57.40
73322;DHT22;61549;37.044;22.128;2022-12-18T14:23:00;25.70;56.90
73322;DHT22;61549;37.044;22.128;2022-12-18T14:25:28;25.70;56.90
73322;DHT22;61549;37.044;22.128;2022-12-18T14:30:43;25.40;57.20
73322;DHT22;61549;37.044;22.128;2022-12-18T14:33:17;25.40;57.10
73322;DHT22;61549;37.044;22.128;2022-12-18T14:36:02;25.30;56.80
73322;DHT22;61549;37.044;22.128;2022-12-18T14:38:34;25.30;57.00
73322;DHT22;61549;37.044;22.128;2022-12-18T14:41:05;25.20;56.80
73322;DHT22;61549;37.044;22.128;2022-12-18T14:43:33;25.20;57.60
73322;DHT22;61549;37.044;22.128;2022-12-18T14:46:01;25.10;57.60
73322;DHT22;61549;37.044;22.128;2022-12-18T14:48:41;25.10;58.10
73322;DHT22;61549;37.044;22.128;2022-12-18T14:53:42;25.10;59.30
73322;DHT22;61549;37.044;22.128;2022-12-18T14:56:27;25.00;59.30
73322;DHT22;61549;37.044;22.128;2022-12-18T14:58:56;24.90;59.30
73322;DHT22;61549;37.044;22.128;2022-12-18T15:01:47;24.80;59.60
73322;DHT22;61549;37.044;22.128;2022-12-18T15:04:36;24.60;59.90
73322;DHT22;61549;37.044;22.128;2022-12-18T15:07:09;24.50;60.20
73322;DHT22;61549;37.044;22.128;2022-12-18T15:09:35;24.30;60.80
73322;DHT22;61549;37.044;22.128;2022-12-18T15:12:02;24.20;61.10
73322;DHT22;61549;37.044;22.128;2022-12-18T15:17:06;24.00;61.40
73322;DHT22;61549;37.044;22.128;2022-12-18T15:19:41;23.80;61.60
73322;DHT22;61549;37.044;22.128;2022-12-18T15:22:24;23.70;61.90
73322;DHT22;61549;37.044;22.128;2022-12-18T15:24:51;23.60;62.20
73322;DHT22;61549;37.044;22.128;2022-12-18T15:27:27;23.40;62.40
73322;DHT22;61549;37.044;22.128;2022-12-18T15:30:15;23.40;62.70
73322;DHT22;61549;37.044;22.128;2022-12-18T15:32:44;23.20;62.80
73322;DHT22;61549;37.044;22.128;2022-12-18T15:35:24;23.10;63.00
73322;DHT22;61549;37.044;22.128;2022-12-18T15:37:51;23.10;62.90
73322;DHT22;61549;37.044;22.128;2022-12-18T15:40:23;23.00;63.10
73322;DHT22;61549;37.044;22.128;2022-12-18T15:42:52;23.00;63.20
73322;DHT22;61549;37.044;22.128;2022-12-18T15:45:37;22.90;63.20
73322;DHT22;61549;37.044;22.128;2022-12-18T15:48:22;22.80;63.00
73322;DHT22;61549;37.044;22.128;2022-12-18T15:50:52;22.70;63.20
73322;DHT22;61549;37.044;22.128;2022-12-18T15:53:19;22.70;63.60
73322;DHT22;61549;37.044;22.128;2022-12-18T15:55:45;22.60;63.50
73322;DHT22;61549;37.044;22.128;2022-12-18T15:58:29;22.60;63.80
73322;DHT22;61549;37.044;22.128;2022-12-18T16:00:56;22.50;64.10
73322;DHT22;61549;37.044;22.128;2022-12-18T16:03:23;22.50;64.40
73322;DHT22;61549;37.044;22.128;2022-12-18T16:05:49;22.40;64.80
73322;DHT22;61549;37.044;22.128;2022-12-18T16:08:15;22.40;65.20
73322;DHT22;61549;37.044;22.128;2022-12-18T16:10:41;22.40;65.60
73322;DHT22;61549;37.044;22.128;2022-12-18T16:13:10;22.40;65.70
73322;DHT22;61549;37.044;22.128;2022-12-18T16:15:37;22.40;65.70
73322;DHT22;61549;37.044;22.128;2022-12-18T16:18:03;22.30;65.90
73322;DHT22;61549;37.044;22.128;2022-12-18T16:20:29;22.40;66.00
73322;DHT22;61549;37.044;22.128;2022-12-18T16:22:54;22.40;66.20
73322;DHT22;61549;37.044;22.128;2022-12-18T16:25:30;22.40;66.30
73322;DHT22;61549;37.044;22.128;2022-12-18T16:27:56;22.40;66.40
73322;DHT22;61549;37.044;22.128;2022-12-18T16:30:28;22.40;66.50
73322;DHT22;61549;37.044;22.128;2022-12-18T16:32:55;22.40;66.40
73322;DHT22;61549;37.044;22.128;2022-12-18T16:35:21;22.40;66.50
73322;DHT22;61549;37.044;22.128;2022-12-18T16:37:47;22.40;66.50
73322;DHT22;61549;37.044;22.128;2022-12-18T16:40:15;22.40;66.40
73322;DHT22;61549;37.044;22.128;2022-12-18T16:42:42;22.40;66.20
73322;DHT22;61549;37.044;22.128;2022-12-18T16:45:14;22.40;66.20
73322;DHT22;61549;37.044;22.128;2022-12-18T16:47:40;22.40;65.90
73322;DHT22;61549;37.044;22.128;2022-12-18T16:50:07;22.40;65.80
73322;DHT22;61549;37.044;22.128;2022-12-18T16:52:34;22.30;66.20
73322;DHT22;61549;37.044;22.128;2022-12-18T16:55:00;22.30;66.20
73322;DHT22;61549;37.044;22.128;2022-12-18T16:57:26;22.20;65.60
73322;DHT22;61549;37.044;22.128;2022-12-18T16:59:55;22.20;65.50
73322;DHT22;61549;37.044;22.128;2022-12-18T17:02:25;22.20;65.30
73322;DHT22;61549;37.044;22.128;2022-12-18T17:04:56;22.20;64.90
73322;DHT22;61549;37.044;22.128;2022-12-18T17:07:23;22.20;64.60
73322;DHT22;61549;37.044;22.128;2022-12-18T17:09:49;22.20;64.20
73322;DHT22;61549;37.044;22.128;2022-12-18T17:12:16;22.20;63.90
73322;DHT22;61549;37.044;22.128;2022-12-18T17:14:42;22.10;63.70
73322;DHT22;61549;37.044;22.128;2022-12-18T17:17:07;22.10;63.80